Time;durP1;ratioP1;P1;durP2;ratioP2;P2;SDS_P1;SDS_P2;PMS_P1;PMS_P2;Temp;Humidity;BMP_temperature;BMP_pressure;BME280_temperature;BME280_humidity;BME280_pressure;Samples;Min_cycle;Max_cycle;Signal;HPM_P1;HPM_P2
2021/12/11 00:00:17;;;;;;;16.43;14.77;;;;;;;3.53;84.59;99808.44;4990026;28;20583;-85
2021/12/11 00:02:45;;;;;;;17.87;16.07;;;;;;;2.07;84.57;99590.75;4973433;28;20105;-84
2021/12/11 00:05:15;;;;;;;16.50;14.67;;;;;;;3.35;84.84;99792.22;4973145;28;20546;-86
2021/12/11 00:07:43;;;;;;;17.10;15.07;;;;;;;2.37;84.29;99624.41;4973181;28;20054;-84
2021/12/11 00:10:21;;;;;;;17.80;16.00;;;;;;;3.54;84.40;99826.69;4989392;28;20393;-85
2021/12/11 00:13:01;;;;;;;17.07;15.10;;;;;;;3.40;84.04;99805.88;4976055;28;20141;-81
2021/12/11 00:15:48;;;;;;;17.60;15.53;;;;;;;2.38;84.01;99651.41;4975539;28;20046;-81
2021/12/11 00:18:23;;;;;;;19.10;17.20;;;;;;;1.86;83.66;99575.56;4989995;28;20085;-83
2021/12/11 00:21:04;;;;;;;19.03;16.80;;;;;;;2.26;84.04;99638.25;4989285;28;20058;-85
2021/12/11 00:23:52;;;;;;;19.50;16.93;;;;;;;1.46;84.00;99533.84;4990840;28;20064;-85
2021/12/11 00:26:41;;;;;;;19.03;16.97;;;;;;;3.49;84.14;99843.72;4974145;28;20058;-83
2021/12/11 00:29:11;;;;;;;19.00;16.93;;;;;;;3.63;83.86;99857.53;4991828;28;20054;-84
2021/12/11 00:31:57;;;;;;;19.73;17.63;;;;;;;2.18;83.23;99619.59;4974127;28;20178;-85
2021/12/11 00:34:30;;;;;;;17.83;15.95;;;;;;;2.77;83.31;99721.19;4974912;28;20054;-84
2021/12/11 00:37:04;;;;;;;18.60;16.67;;;;;;;2.75;83.30;99713.41;4990297;28;20125;-85
2021/12/11 00:40:00;;;;;;;18.63;16.70;;;;;;;3.52;83.46;99835.63;4990365;28;20058;-84
2021/12/11 00:42:33;;;;;;;19.60;16.27;;;;;;;3.23;83.49;99809.69;4973902;28;20053;-88
2021/12/11 00:45:16;;;;;;;19.63;17.53;;;;;;;3.41;82.98;99854.75;4974166;28;20054;-85
2021/12/11 00:47:46;;;;;;;20.93;16.20;;;;;;;3.34;83.66;99815.00;4973541;28;20085;-84
2021/12/11 00:50:17;;;;;;;18.73;16.57;;;;;;;3.38;83.19;99826.13;4991446;28;20061;-85
2021/12/11 00:53:13;;;;;;;16.83;14.93;;;;;;;3.42;82.90;99848.56;4974621;28;20132;-87
2021/12/11 00:55:54;;;;;;;16.52;14.85;;;;;;;3.21;83.23;99825.53;4977200;28;20058;-86
2021/12/11 00:58:42;;;;;;;17.93;16.13;;;;;;;3.40;83.97;99861.81;5001109;28;20047;-87
2021/12/11 01:01:27;;;;;;;17.00;15.03;;;;;;;3.18;83.36;99828.38;4978313;28;20046;-85
2021/12/11 01:04:04;;;;;;;16.70;15.00;;;;;;;2.85;83.59;99770.44;4975988;28;20047;-87
2021/12/11 01:06:39;;;;;;;15.37;13.97;;;;;;;3.49;83.49;99855.06;4974512;28;20096;-87
2021/12/11 01:09:18;;;;;;;17.33;15.53;;;;;;;3.36;82.86;99835.88;4975881;28;20058;-87
2021/12/11 01:11:56;;;;;;;17.07;15.30;;;;;;;3.40;82.90;99850.47;4992637;28;20046;-85
2021/12/11 01:14:41;;;;;;;16.60;14.90;;;;;;;3.60;82.12;99868.25;4993177;28;20129;-86
2021/12/11 01:17:21;;;;;;;16.37;14.67;;;;;;;3.06;82.67;99799.53;4977883;28;20145;-84
2021/12/11 01:19:52;;;;;;;15.73;13.93;;;;;;;3.25;82.61;99830.56;4976212;28;20448;-87
2021/12/11 01:22:33;;;;;;;17.25;15.65;;;;;;;2.74;83.07;99753.69;4991477;28;20050;-87
2021/12/11 01:25:12;;;;;;;16.13;14.50;;;;;;;3.50;82.42;99883.00;4973183;28;20082;-86
2021/12/11 01:27:42;;;;;;;15.93;14.30;;;;;;;2.94;82.97;99785.53;4972228;28;20054;-86
2021/12/11 01:30:13;;;;;;;16.33;14.63;;;;;;;3.35;82.76;99863.06;4972351;28;20085;-86
2021/12/11 01:32:41;;;;;;;15.63;14.07;;;;;;;2.94;82.78;99806.50;4971946;28;20046;-84
2021/12/11 01:35:11;;;;;;;15.90;12.90;;;;;;;3.36;82.87;99864.75;4972216;28;20484;-86
2021/12/11 01:37:38;;;;;;;15.67;13.63;;;;;;;3.47;82.39;99879.72;4972555;28;20077;-86
2021/12/11 01:40:09;;;;;;;15.13;13.60;;;;;;;3.07;82.68;99825.66;4995392;28;20050;-86
2021/12/11 01:42:38;;;;;;;14.63;13.23;;;;;;;2.65;82.55;99764.81;4984204;28;20114;-86
2021/12/11 01:45:12;;;;;;;15.50;13.33;;;;;;;2.23;83.06;99693.44;4987492;28;20112;-88
2021/12/11 01:47:42;;;;;;;16.07;14.37;;;;;;;3.52;82.36;99902.09;4984920;28;20050;-88
2021/12/11 01:50:08;;;;;;;14.67;13.20;;;;;;;3.47;82.20;99896.34;4984933;28;20054;-88
2021/12/11 01:52:44;;;;;;;16.20;14.60;;;;;;;3.42;82.65;99901.03;5003632;28;20051;-85
2021/12/11 01:55:32;;;;;;;14.50;13.00;;;;;;;3.41;82.76;99897.59;4974592;28;20089;-85
2021/12/11 01:58:00;;;;;;;14.50;13.10;;;;;;;3.40;82.58;99895.09;4974344;28;20137;-86
2021/12/11 02:00:36;;;;;;;15.90;14.30;;;;;;;3.14;82.63;99866.25;4974421;28;20405;-85
2021/12/11 02:03:10;;;;;;;15.10;13.50;;;;;;;2.69;82.38;99789.84;4991148;28;20065;-85
2021/12/11 02:05:42;;;;;;;16.23;13.73;;;;;;;3.40;82.02;99908.19;4991388;28;20047;-84
2021/12/11 02:08:12;;;;;;;16.30;14.60;;;;;;;3.43;82.58;99903.56;4990087;28;20072;-84
2021/12/11 02:11:00;;;;;;;15.23;13.63;;;;;;;3.30;82.35;99880.91;4974296;28;20149;-84
2021/12/11 02:13:54;;;;;;;15.63;14.03;;;;;;;2.94;82.24;99823.06;4973713;28;20361;-85
2021/12/11 02:16:27;;;;;;;14.67;13.23;;;;;;;3.49;81.74;99902.28;4990956;28;20571;-86
2021/12/11 02:19:08;;;;;;;14.70;13.20;;;;;;;3.43;81.78;99887.00;4973673;28;20532;-85
2021/12/11 02:21:54;;;;;;;17.17;15.30;;;;;;;3.40;81.55;99874.94;4990884;28;20141;-86
2021/12/11 02:24:25;;;;;;;17.57;14.57;;;;;;;3.61;81.22;99911.91;4973702;28;20442;-85
2021/12/11 02:26:56;;;;;;;14.40;12.87;;;;;;;3.45;81.00;99887.72;4974394;28;20551;-85
2021/12/11 02:29:40;;;;;;;15.67;13.63;;;;;;;3.57;81.57;99918.34;4990674;28;20425;-86
2021/12/11 02:32:07;;;;;;;17.70;15.57;;;;;;;3.60;81.62;99926.00;4973233;28;20053;-86
2021/12/11 02:35:08;;;;;;;16.43;14.73;;;;;;;3.69;80.37;99915.78;4990898;28;20060;-84
2021/12/11 02:37:44;;;;;;;15.77;14.03;;;;;;;3.64;80.95;99906.47;4983530;28;20104;-86
2021/12/11 02:40:23;;;;;;;16.97;14.27;;;;;;;3.67;80.44;99920.31;4973492;28;20056;-84
2021/12/11 02:43:05;;;;;;;16.87;14.70;;;;;;;3.45;80.94;99885.09;4973643;28;20145;-85
2021/12/11 02:45:39;;;;;;;16.58;14.85;;;;;;;2.95;80.38;99803.75;4994696;28;20133;-87
2021/12/11 02:48:12;;;;;;;16.23;14.30;;;;;;;3.09;80.79;99846.56;4981551;28;20082;-87
2021/12/11 02:50:48;;;;;;;15.77;13.63;;;;;;;3.35;81.87;99884.03;4976977;28;20092;-86
2021/12/11 02:53:22;;;;;;;16.33;14.50;;;;;;;2.85;81.10;99807.97;4973735;28;20082;-85
2021/12/11 02:55:59;;;;;;;16.00;14.40;;;;;;;3.48;81.53;99908.50;4973397;28;20050;-86
2021/12/11 02:58:30;;;;;;;17.23;14.77;;;;;;;2.92;80.90;99824.94;4991788;28;20047;-84
2021/12/11 03:01:12;;;;;;;15.53;13.90;;;;;;;3.31;80.90;99872.13;4975377;28;20070;-86
2021/12/11 03:03:44;;;;;;;15.93;14.30;;;;;;;3.62;81.06;99918.84;4973158;28;20813;-86
2021/12/11 03:06:18;;;;;;;19.00;15.23;;;;;;;3.42;80.76;99887.91;4973818;28;20150;-85
2021/12/11 03:08:48;;;;;;;15.53;13.90;;;;;;;3.47;80.65;99904.22;4990431;28;20255;-85
2021/12/11 03:11:18;;;;;;;15.50;13.87;;;;;;;3.09;80.09;99852.63;4990457;28;20081;-85
2021/12/11 03:13:50;;;;;;;17.07;15.37;;;;;;;3.44;80.74;99912.28;4973132;28;20076;-85
2021/12/11 03:16:20;;;;;;;18.87;16.00;;;;;;;3.06;80.01;99850.22;4989924;28;20061;-87
2021/12/11 03:18:47;;;;;;;17.00;14.83;;;;;;;3.43;80.21;99900.09;4973618;28;20082;-85
2021/12/11 03:21:14;;;;;;;15.70;14.10;;;;;;;2.38;80.83;99730.00;4973492;28;20051;-87
2021/12/11 03:23:42;;;;;;;15.77;14.17;;;;;;;3.33;79.96;99885.97;4990591;28;20134;-85
2021/12/11 03:26:09;;;;;;;17.10;14.10;;;;;;;3.42;80.08;99912.41;4973306;28;20133;-87
2021/12/11 03:28:36;;;;;;;16.50;14.90;;;;;;;3.18;79.53;99875.59;4990772;28;20051;-85
2021/12/11 03:31:07;;;;;;;19.30;15.07;;;;;;;2.84;79.14;99787.09;4973595;28;20283;-86
2021/12/11 03:33:37;;;;;;;17.17;14.47;;;;;;;3.70;78.88;99914.84;4973598;28;20403;-86
2021/12/11 03:36:07;;;;;;;17.30;15.30;;;;;;;3.21;78.63;99843.06;4973711;28;20077;-85
2021/12/11 03:38:37;;;;;;;18.67;16.63;;;;;;;3.11;78.41;99845.50;4973422;28;20046;-82
2021/12/11 03:41:04;;;;;;;17.93;16.03;;;;;;;2.90;79.24;99826.84;4974032;28;20050;-85
2021/12/11 03:43:32;;;;;;;17.50;15.80;;;;;;;3.47;79.65;99922.56;4975357;28;20568;-87
2021/12/11 03:46:06;;;;;;;19.07;16.10;;;;;;;2.74;79.32;99816.59;4981397;28;20057;-87
2021/12/11 03:48:44;;;;;;;17.17;15.37;;;;;;;2.50;79.45;99781.56;5000562;28;20308;-87
2021/12/11 03:51:16;;;;;;;20.47;17.07;;;;;;;2.30;79.46;99754.09;5002843;28;20046;-86
2021/12/11 03:53:42;;;;;;;20.17;16.73;;;;;;;2.90;78.89;99866.16;4985941;28;20073;-87
2021/12/11 03:56:13;;;;;;;19.40;16.60;;;;;;;2.85;79.32;99873.50;4994646;28;20104;-85
2021/12/11 03:58:48;;;;;;;19.53;17.17;;;;;;;2.86;79.57;99869.09;4972160;28;20051;-85
2021/12/11 04:01:30;;;;;;;19.70;16.43;;;;;;;2.69;79.24;99839.63;4971052;28;20481;-85
2021/12/11 04:04:06;;;;;;;24.27;17.70;;;;;;;3.40;78.79;99958.91;4988837;28;20500;-85
2021/12/11 04:06:32;;;;;;;20.60;17.70;;;;;;;2.69;79.01;99860.59;4989131;28;20053;-83
2021/12/11 04:09:03;;;;;;;22.00;18.50;;;;;;;3.17;78.94;99949.97;4971506;28;20054;-83
2021/12/11 04:11:33;;;;;;;20.57;17.40;;;;;;;3.29;79.24;99957.94;4988114;28;20101;-83
2021/12/11 04:14:05;;;;;;;20.43;17.53;;;;;;;3.39;78.49;99979.97;4971402;28;20141;-85
2021/12/11 04:16:32;;;;;;;;;;;;;;;3.37;78.54;99982.72;4989330;28;20435;-83
2021/12/11 04:18:59;;;;;;;20.63;17.57;;;;;;;3.13;78.68;99942.41;4989357;28;19921;-85
2021/12/11 04:21:27;;;;;;;20.00;17.20;;;;;;;3.28;79.00;99977.28;4972729;28;20409;-86
2021/12/11 04:23:54;;;;;;;19.00;17.00;;;;;;;2.92;78.73;99892.28;4997398;28;20133;-86
2021/12/11 04:26:21;;;;;;;23.07;18.70;;;;;;;3.54;77.85;99999.91;4992305;28;20547;-85
2021/12/11 04:28:48;;;;;;;19.70;17.60;;;;;;;3.02;78.47;99937.91;4988815;28;20133;-85
2021/12/11 04:31:20;;;;;;;19.63;17.00;;;;;;;3.51;78.33;100015.88;4988947;28;20078;-84
2021/12/11 04:33:50;;;;;;;19.07;17.03;;;;;;;3.55;78.16;100019.97;4971395;28;20393;-84
2021/12/11 04:36:20;;;;;;;21.17;18.83;;;;;;;3.17;77.98;99970.94;4971560;28;20145;-84
2021/12/11 04:38:48;;;;;;;21.00;18.83;;;;;;;3.39;78.32;99998.34;4992386;28;20050;-85
2021/12/11 04:41:23;;;;;;;19.10;17.10;;;;;;;3.44;77.45;100004.13;4980425;28;20073;-84
2021/12/11 04:43:52;;;;;;;22.40;19.43;;;;;;;3.10;77.32;99968.84;4979661;28;20038;-85
2021/12/11 04:46:19;;;;;;;20.20;18.03;;;;;;;3.29;77.87;100010.41;4989693;28;20060;-86
2021/12/11 04:49:03;;;;;;;22.20;17.53;;;;;;;2.97;78.37;99964.44;4988487;28;20137;-83
2021/12/11 04:52:04;;;;;;;19.70;17.47;;;;;;;3.43;78.08;100029.53;4971380;28;20500;-84
2021/12/11 05:00:18;;;;;;;20.37;18.27;;;;;;;2.87;78.00;99962.56;4988364;28;20484;-84
2021/12/11 05:06:02;;;;;;;18.97;16.93;;;;;;;2.74;78.34;99934.53;4988566;28;20141;-85
2021/12/11 05:11:20;;;;;;;19.77;16.80;;;;;;;3.28;77.59;100019.25;4988455;28;20142;-83
2021/12/11 05:13:47;;;;;;;17.73;15.83;;;;;;;3.00;77.66;99992.25;4991487;28;20137;-82
2021/12/11 05:16:16;;;;;;;20.87;16.97;;;;;;;3.28;77.32;100027.13;4974294;28;20058;-81
2021/12/11 05:18:45;;;;;;;19.30;16.40;;;;;;;2.54;76.91;99893.09;4991068;28;20120;-83
2021/12/11 05:21:16;;;;;;;18.40;15.77;;;;;;;2.88;77.34;99953.72;4971469;28;20456;-83
2021/12/11 05:23:44;;;;;;;18.90;16.97;;;;;;;3.35;76.75;100036.22;4969540;28;20133;-84
2021/12/11 05:26:11;;;;;;;16.93;15.17;;;;;;;3.52;77.26;100063.94;4980824;28;20493;-83
2021/12/11 05:28:37;;;;;;;17.50;15.70;;;;;;;3.58;76.78;100063.53;4989864;28;20069;-86
2021/12/11 05:31:07;;;;;;;17.57;15.70;;;;;;;3.17;76.41;99999.81;4991980;28;20476;-83
2021/12/11 05:33:35;;;;;;;16.60;14.90;;;;;;;3.47;76.49;100051.16;4989571;28;20227;-83
2021/12/11 05:36:06;;;;;;;16.90;15.03;;;;;;;3.35;76.80;100044.09;4972209;28;20077;-85
2021/12/11 05:38:35;;;;;;;14.43;13.03;;;;;;;3.47;76.65;100055.53;4972463;28;20145;-86
2021/12/11 05:41:05;;;;;;;14.73;13.23;;;;;;;3.34;75.92;100066.03;4992780;28;20049;-85
2021/12/11 05:43:34;;;;;;;16.63;12.37;;;;;;;3.12;75.57;100020.25;4991934;28;20567;-82
2021/12/11 05:46:03;;;;;;;15.03;13.17;;;;;;;2.84;75.90;99988.94;5009785;28;20081;-83
2021/12/11 05:48:30;;;;;;;14.23;12.80;;;;;;;2.74;75.63;99973.00;4995141;28;20089;-83
2021/12/11 05:51:01;;;;;;;13.90;11.80;;;;;;;3.41;75.68;100075.19;4995564;28;20141;-86
2021/12/11 05:53:31;;;;;;;13.57;11.37;;;;;;;2.94;75.50;99988.25;4993412;28;20064;-83
2021/12/11 05:56:00;;;;;;;11.33;10.23;;;;;;;3.56;75.36;100055.75;4995635;28;20140;-84
2021/12/11 05:58:47;;;;;;;11.77;9.93;;;;;;;3.62;74.95;100060.59;4992915;28;20092;-82
2021/12/11 06:01:21;;;;;;;11.13;10.03;;;;;;;3.11;74.49;99963.50;4991605;28;20050;-83
2021/12/11 06:03:49;;;;;;;10.93;9.77;;;;;;;3.84;73.88;100085.38;4991677;28;20388;-85
2021/12/11 06:06:18;;;;;;;10.70;9.70;;;;;;;2.70;73.72;99892.91;5007550;28;20061;-84
2021/12/11 06:08:45;;;;;;;10.30;9.23;;;;;;;3.12;73.52;99959.94;5009153;28;20050;-83
2021/12/11 06:11:14;;;;;;;10.73;9.73;;;;;;;3.48;73.78;100021.34;4991332;28;20573;-84
2021/12/11 06:13:41;;;;;;;10.60;8.60;;;;;;;3.36;73.65;100007.28;4991061;28;20156;-85
2021/12/11 06:16:09;;;;;;;9.10;8.20;;;;;;;2.80;73.50;99907.06;5008808;28;20085;-85
2021/12/11 06:18:37;;;;;;;10.60;9.37;;;;;;;3.91;72.93;100081.38;4989794;28;20058;-79
2021/12/11 06:21:04;;;;;;;10.50;8.70;;;;;;;3.82;73.16;100076.78;4971801;28;20125;-82
2021/12/11 06:23:30;;;;;;;10.83;8.10;;;;;;;3.71;72.84;100072.25;4989330;28;20498;-83
2021/12/11 06:25:57;;;;;;;8.50;7.60;;;;;;;3.72;72.70;100065.22;4970825;28;20077;-82
2021/12/11 06:28:25;;;;;;;8.70;7.90;;;;;;;3.70;72.76;100051.38;4970889;28;20138;-81
2021/12/11 06:30:57;;;;;;;9.10;8.20;;;;;;;4.01;72.57;100118.38;4971749;28;20086;-79
2021/12/11 06:33:27;;;;;;;9.10;8.10;;;;;;;3.96;72.51;100126.56;4990247;28;20046;-83
2021/12/11 06:36:02;;;;;;;9.33;8.43;;;;;;;3.75;72.30;100092.09;4974810;28;20069;-81
2021/12/11 06:38:33;;;;;;;8.23;7.43;;;;;;;3.78;72.50;100098.91;4974831;28;20381;-83
2021/12/11 06:41:01;;;;;;;8.63;7.73;;;;;;;3.55;72.18;100043.59;4973351;28;20058;-82
2021/12/11 06:43:28;;;;;;;8.73;7.30;;;;;;;3.97;72.07;100137.91;4988989;28;20046;-82
2021/12/11 06:45:55;;;;;;;8.63;7.73;;;;;;;4.04;72.20;100142.63;4989128;28;20149;-82
2021/12/11 06:48:23;;;;;;;9.40;7.70;;;;;;;3.89;71.75;100125.28;4987715;28;20187;-82
2021/12/11 06:50:51;;;;;;;8.67;7.80;;;;;;;3.90;72.03;100147.97;4990544;28;20060;-82
2021/12/11 06:53:24;;;;;;;7.83;7.03;;;;;;;3.91;71.93;100156.69;4990577;28;20104;-84
2021/12/11 06:55:51;;;;;;;7.83;7.03;;;;;;;3.51;72.01;100110.34;5007552;28;20045;-81
2021/12/11 06:58:18;;;;;;;7.90;7.20;;;;;;;3.87;72.00;100184.13;5007993;28;20049;-82
2021/12/11 07:00:45;;;;;;;8.23;7.10;;;;;;;3.86;71.48;100183.28;4991416;28;20407;-82
2021/12/11 07:03:11;;;;;;;7.57;6.67;;;;;;;3.80;71.46;100181.06;4987749;28;20054;-81
2021/12/11 07:05:38;;;;;;;7.57;6.53;;;;;;;3.76;71.97;100182.19;4988001;28;20145;-81
2021/12/11 07:08:07;;;;;;;8.80;6.90;;;;;;;3.69;72.15;100170.44;4987778;28;20054;-82
2021/12/11 07:10:34;;;;;;;8.60;6.93;;;;;;;3.58;72.00;100160.66;4988299;28;20351;-82
2021/12/11 07:13:01;;;;;;;8.60;7.27;;;;;;;3.67;71.66;100185.47;5004640;28;20137;-85
2021/12/11 07:15:29;;;;;;;8.23;7.43;;;;;;;3.64;71.63;100183.84;4990596;28;20054;-82
2021/12/11 07:17:56;;;;;;;7.03;6.33;;;;;;;3.62;71.62;100185.78;4996911;28;20528;-83
2021/12/11 07:20:23;;;;;;;6.90;6.03;;;;;;;3.75;72.13;100212.03;4992756;28;20057;-82
2021/12/11 07:22:50;;;;;;;7.77;6.97;;;;;;;3.57;71.75;100187.88;4989248;28;20492;-81
2021/12/11 07:25:29;;;;;;;6.70;6.07;;;;;;;3.60;71.54;100198.97;4985571;28;20058;-81
2021/12/11 07:27:58;;;;;;;7.07;5.93;;;;;;;3.83;71.00;100246.50;4970607;28;20050;-81
2021/12/11 07:30:25;;;;;;;8.40;7.40;;;;;;;3.82;71.76;100244.81;4968986;28;20145;-81
2021/12/11 07:32:54;;;;;;;6.83;5.80;;;;;;;3.84;71.79;100232.44;4968443;28;20576;-81
2021/12/11 07:35:22;;;;;;;7.23;6.53;;;;;;;3.46;71.47;100159.69;4968175;28;20058;-82
2021/12/11 07:37:50;;;;;;;8.63;5.93;;;;;;;3.98;71.29;100256.00;4968255;28;20055;-83
2021/12/11 07:40:24;;;;;;;7.23;6.53;;;;;;;4.04;70.93;100260.81;4978778;28;20047;-81
2021/12/11 07:42:51;;;;;;;6.30;5.70;;;;;;;4.06;70.48;100253.69;4970191;28;20147;-82
2021/12/11 07:45:19;;;;;;;6.73;6.03;;;;;;;3.96;69.99;100242.13;4968844;28;20302;-81
2021/12/11 07:47:46;;;;;;;7.57;6.77;;;;;;;3.99;70.22;100259.44;4968824;28;20053;-84
2021/12/11 07:50:13;;;;;;;7.43;6.73;;;;;;;4.12;70.02;100286.56;4971141;28;20055;-84
2021/12/11 07:52:40;;;;;;;6.57;5.97;;;;;;;4.09;70.43;100288.56;4971383;28;20398;-81
2021/12/11 07:55:09;;;;;;;7.43;6.33;;;;;;;3.99;70.20;100277.84;4971171;28;20138;-81
2021/12/11 07:57:36;;;;;;;8.07;6.23;;;;;;;4.00;70.13;100275.09;4969637;28;20050;-81
2021/12/11 08:00:08;;;;;;;6.63;5.50;;;;;;;3.97;70.13;100275.31;4971349;28;20054;-81
2021/12/11 08:02:35;;;;;;;6.57;6.00;;;;;;;3.65;69.70;100238.06;4971760;28;20046;-80
2021/12/11 08:05:04;;;;;;;6.77;6.10;;;;;;;4.17;70.15;100328.31;4984636;28;20123;-81
2021/12/11 08:07:30;;;;;;;7.43;6.40;;;;;;;4.01;70.07;100303.06;4968063;28;20138;-80
2021/12/11 08:09:57;;;;;;;6.33;5.70;;;;;;;4.17;69.51;100331.75;4967509;28;20144;-81
2021/12/11 08:12:24;;;;;;;7.43;6.53;;;;;;;4.05;69.99;100311.56;4967463;28;20050;-82
2021/12/11 08:14:51;;;;;;;6.70;5.93;;;;;;;4.06;69.62;100316.72;4967219;28;20055;-82
2021/12/11 08:17:18;;;;;;;11.07;5.60;;;;;;;3.89;69.62;100288.13;4968605;28;20055;-81
2021/12/11 08:19:45;;;;;;;6.93;6.23;;;;;;;4.27;70.02;100350.38;4967654;28;20424;-81
2021/12/11 08:22:12;;;;;;;7.30;6.13;;;;;;;4.37;69.87;100362.00;4967460;28;20086;-82
2021/12/11 08:24:40;;;;;;;7.33;6.27;;;;;;;4.25;69.15;100333.91;4967379;28;20267;-81
2021/12/11 08:27:16;;;;;;;7.53;6.43;;;;;;;4.41;69.58;100363.44;4969277;28;20157;-81
2021/12/11 08:29:45;;;;;;;6.53;5.90;;;;;;;3.71;68.80;100250.75;4975122;28;20092;-83
2021/12/11 08:32:12;;;;;;;6.47;5.83;;;;;;;4.40;68.86;100355.69;4975837;28;20047;-81
2021/12/11 08:34:40;;;;;;;7.13;6.43;;;;;;;4.26;68.69;100320.66;4971428;28;20145;-84
2021/12/11 08:37:12;;;;;;;6.70;6.00;;;;;;;4.79;68.30;100403.91;4969955;28;20221;-82
2021/12/11 08:39:40;;;;;;;6.60;5.60;;;;;;;4.81;67.59;100412.53;4968574;28;20153;-81
2021/12/11 08:42:10;;;;;;;7.40;6.13;;;;;;;4.70;67.12;100394.84;4968962;28;20490;-82
2021/12/11 08:44:39;;;;;;;5.77;5.17;;;;;;;4.68;66.96;100388.84;4966815;28;20057;-80
2021/12/11 08:47:09;;;;;;;6.87;6.17;;;;;;;4.85;66.89;100414.81;4969183;28;20133;-80
2021/12/11 08:49:39;;;;;;;5.30;4.80;;;;;;;4.09;65.82;100283.31;4971668;28;20082;-80
2021/12/11 08:52:24;;;;;;;5.77;5.17;;;;;;;4.90;66.21;100423.28;4971762;28;20057;-81
2021/12/11 08:54:52;;;;;;;5.23;4.73;;;;;;;4.97;66.04;100436.81;4971400;28;20061;-80
2021/12/11 08:57:23;;;;;;;5.97;5.10;;;;;;;4.70;66.05;100389.56;4971017;28;20043;-82
2021/12/11 08:59:53;;;;;;;6.73;5.60;;;;;;;4.84;65.74;100404.44;4970740;28;20141;-82
2021/12/11 09:02:33;;;;;;;6.67;5.30;;;;;;;4.72;65.07;100364.03;4980751;28;20061;-82
2021/12/11 09:05:12;;;;;;;6.23;5.63;;;;;;;5.21;64.79;100442.19;4974491;28;20203;-79
2021/12/11 09:07:41;;;;;;;5.50;4.93;;;;;;;5.28;65.20;100451.34;4974462;28;20058;-81
2021/12/11 09:10:18;;;;;;;6.10;5.50;;;;;;;5.26;64.44;100439.25;4991504;28;20150;-81
2021/12/11 09:12:51;;;;;;;7.47;5.43;;;;;;;5.18;64.56;100416.09;4974004;28;20109;-79
2021/12/11 09:15:32;;;;;;;;;;;;;;;5.42;63.96;100457.47;4974253;28;20512;-82
2021/12/11 09:18:11;;;;;;;5.97;4.93;;;;;;;4.89;64.08;100384.75;4974652;28;19992;-80
2021/12/11 09:21:02;;;;;;;5.70;5.20;;;;;;;5.45;63.43;100478.31;4989520;28;20138;-81
2021/12/11 09:23:43;;;;;;;8.00;5.10;;;;;;;5.38;63.46;100474.41;4973786;28;20137;-79
2021/12/11 09:26:27;;;;;;;5.13;4.63;;;;;;;5.53;63.35;100474.22;4973517;28;20571;-80
2021/12/11 09:29:04;;;;;;;6.67;5.77;;;;;;;4.29;63.03;100285.44;4976822;28;20852;-83
2021/12/11 09:31:38;;;;;;;5.33;4.90;;;;;;;4.56;63.21;100321.31;4978900;28;20058;-83
2021/12/11 09:34:21;;;;;;;6.93;5.63;;;;;;;5.04;62.24;100393.38;4977921;28;20419;-79
2021/12/11 09:36:54;;;;;;;5.93;5.30;;;;;;;5.47;62.21;100452.72;4973833;28;20092;-82
2021/12/11 09:57:14;;;;;;;5.13;4.60;;;;;;;5.93;61.42;100488.97;5004446;28;20846;-85
2021/12/11 09:59:41;;;;;;;5.63;5.13;;;;;;;5.80;61.09;100491.63;4987816;28;20050;-83
2021/12/11 10:02:39;;;;;;;4.93;4.40;;;;;;;5.49;61.79;100461.38;5004534;28;20050;-85
2021/12/11 10:05:32;;;;;;;5.45;4.53;;;;;;;5.59;61.79;100466.81;4982156;28;20133;-84
2021/12/11 10:08:32;;;;;;;5.03;4.63;;;;;;;5.71;62.60;100487.88;4967992;28;20498;-84
2021/12/11 10:11:27;;;;;;;4.63;4.22;;;;;;;5.91;62.45;100522.50;4969201;28;20047;-83
2021/12/11 10:14:15;;;;;;;5.53;5.03;;;;;;;5.92;62.69;100532.06;4970663;28;20506;-84
2021/12/11 10:16:45;;;;;;;4.85;4.35;;;;;;;5.97;62.57;100509.78;4973727;28;20055;-84
2021/12/11 10:19:15;;;;;;;6.07;5.20;;;;;;;6.11;62.96;100519.31;4970267;28;20137;-85
2021/12/11 10:21:50;;;;;;;5.07;4.57;;;;;;;6.13;63.05;100514.78;4967871;28;20057;-86
2021/12/11 10:24:22;;;;;;;5.30;4.80;;;;;;;6.28;62.26;100522.53;4967609;28;20122;-83
2021/12/11 10:26:52;;;;;;;5.32;4.82;;;;;;;6.33;61.93;100521.25;5015399;28;20049;-85
2021/12/11 10:29:23;;;;;;;9.10;5.15;;;;;;;6.14;62.58;100482.22;5007295;28;20081;-86
2021/12/11 10:31:59;;;;;;;6.00;5.47;;;;;;;6.40;62.90;100529.56;5007685;28;20198;-81
2021/12/11 10:34:28;;;;;;;8.15;5.20;;;;;;;5.95;62.81;100463.41;5006616;28;20093;-83
2021/12/11 10:37:07;;;;;;;8.90;5.35;;;;;;;6.14;63.14;100487.47;4992574;28;20523;-81
2021/12/11 10:39:37;;;;;;;6.20;5.60;;;;;;;6.43;62.93;100537.22;5003941;28;20134;-83
2021/12/11 10:42:04;;;;;;;7.50;5.07;;;;;;;6.33;62.90;100530.94;4986581;28;20333;-82
2021/12/11 10:44:36;;;;;;;5.97;5.22;;;;;;;5.76;63.42;100425.16;4985610;28;20132;-83
2021/12/11 10:47:08;;;;;;;7.43;5.07;;;;;;;5.52;63.50;100384.78;4984870;28;20509;-83
2021/12/11 10:49:37;;;;;;;6.55;5.57;;;;;;;6.47;63.35;100520.25;4984562;28;20050;-82
2021/12/11 10:52:26;;;;;;;5.57;4.97;;;;;;;6.62;62.46;100527.03;4985173;28;20490;-82
2021/12/11 10:54:55;;;;;;;7.07;5.25;;;;;;;6.14;62.94;100431.25;4985739;28;20132;-81
2021/12/11 10:57:23;;;;;;;6.28;5.68;;;;;;;6.48;62.31;100460.44;4976326;28;20518;-83
2021/12/11 10:59:55;;;;;;;6.10;5.45;;;;;;;6.35;61.79;100429.69;4972753;28;20081;-80
2021/12/11 11:02:28;;;;;;;5.05;4.53;;;;;;;7.01;61.21;100532.94;4970285;28;20490;-82
2021/12/11 11:04:57;;;;;;;5.50;4.97;;;;;;;7.04;61.43;100548.56;4970101;28;20172;-86
2021/12/11 11:07:28;;;;;;;6.30;5.68;;;;;;;7.02;61.30;100545.19;4972480;28;20427;-86
2021/12/11 11:09:57;;;;;;;5.07;4.57;;;;;;;6.86;61.42;100523.53;4989253;28;20054;-82
2021/12/11 11:12:24;;;;;;;4.80;4.40;;;;;;;7.12;62.10;100549.78;4990194;28;20054;-82
2021/12/11 11:14:53;;;;;;;5.38;4.65;;;;;;;6.81;60.75;100491.38;4990216;28;20132;-84
2021/12/11 11:17:25;;;;;;;5.03;4.55;;;;;;;6.93;60.26;100519.47;4971235;28;20133;-83
2021/12/11 11:19:52;;;;;;;;;;;;;;;7.06;59.53;100556.34;4952097;28;20138;-82
2021/12/11 11:22:28;;;;;;;5.38;4.88;;;;;;;7.11;59.73;100553.38;4952949;28;19926;-81
2021/12/11 11:25:05;;;;;;;5.40;4.30;;;;;;;6.84;60.20;100505.19;4969110;28;20090;-81
2021/12/11 11:27:33;;;;;;;5.15;4.63;;;;;;;7.07;59.96;100543.03;4951574;28;20522;-81
2021/12/11 11:30:01;;;;;;;5.38;4.45;;;;;;;6.64;59.93;100467.09;4951825;28;20142;-81
2021/12/11 11:32:33;;;;;;;12.95;4.72;;;;;;;6.57;59.50;100476.41;4951951;28;20418;-81
2021/12/11 11:35:14;;;;;;;4.80;4.30;;;;;;;6.94;60.18;100531.75;4951713;28;20708;-82
2021/12/11 11:37:47;;;;;;;6.18;4.45;;;;;;;7.17;59.66;100566.97;4952979;28;20051;-82
2021/12/11 11:40:21;;;;;;;5.07;4.60;;;;;;;7.19;59.23;100569.50;4970617;28;20523;-80
2021/12/11 11:42:48;;;;;;;5.15;4.65;;;;;;;6.40;58.08;100426.72;4988712;28;20306;-81
2021/12/11 11:45:15;;;;;;;4.85;4.10;;;;;;;6.62;58.45;100478.72;4971178;28;20038;-80
2021/12/11 11:47:43;;;;;;;5.55;4.40;;;;;;;6.10;58.83;100409.56;4971705;28;20061;-82
2021/12/11 11:50:15;;;;;;;5.68;4.68;;;;;;;6.04;58.95;100378.38;4988712;28;20153;-82
2021/12/11 11:52:42;;;;;;;4.85;4.38;;;;;;;7.23;59.32;100568.28;4971714;28;20065;-82
2021/12/11 11:55:29;;;;;;;6.63;4.78;;;;;;;7.14;59.33;100555.81;4988668;28;20055;-81
2021/12/11 11:57:57;;;;;;;5.35;4.32;;;;;;;7.26;59.02;100563.63;4972838;28;20042;-83
2021/12/11 12:00:30;;;;;;;4.47;4.07;;;;;;;6.87;58.35;100504.13;4989268;28;20050;-83
2021/12/11 12:02:59;;;;;;;4.18;3.80;;;;;;;7.03;59.06;100520.47;4988949;28;20065;-84
2021/12/11 12:05:35;;;;;;;4.95;4.47;;;;;;;7.44;59.31;100571.94;4970828;28;20137;-84
2021/12/11 12:08:06;;;;;;;5.20;3.97;;;;;;;7.48;58.90;100583.13;4969899;28;20490;-85
2021/12/11 12:10:35;;;;;;;4.80;4.25;;;;;;;7.47;58.90;100586.72;4987937;28;20137;-85
2021/12/11 12:13:07;;;;;;;4.18;3.78;;;;;;;7.47;58.20;100574.34;4988595;28;20081;-79
2021/12/11 12:15:40;;;;;;;5.70;3.92;;;;;;;6.70;59.07;100441.19;4978362;28;20042;-85
2021/12/11 12:18:07;;;;;;;6.88;4.70;;;;;;;5.95;57.60;100329.84;4981860;28;20410;-85
2021/12/11 12:20:35;;;;;;;4.50;4.10;;;;;;;7.61;58.38;100577.75;4980579;28;20113;-81
2021/12/11 12:23:03;;;;;;;4.53;3.65;;;;;;;7.12;58.48;100494.34;4971999;28;20077;-81